createdAt,value
2023-04-07T00:03:29.640Z,12.31
2023-04-07T00:08:31.411Z,11.95
2023-04-07T00:13:32.896Z,11.32
2023-04-07T00:18:34.374Z,12.13
2023-04-07T00:23:36.071Z,12.46
2023-04-07T00:28:37.792Z,12.49
2023-04-07T00:33:39.264Z,11.74
2023-04-07T00:38:40.798Z,12.41
2023-04-07T00:43:42.281Z,12.00
2023-04-07T00:48:44.571Z,12.03
2023-04-07T00:53:46.046Z,12.04
2023-04-07T00:58:47.564Z,11.81
2023-04-07T01:03:52.869Z,11.84
2023-04-07T01:09:00.075Z,12.15
2023-04-07T01:14:01.563Z,11.96
2023-04-07T01:19:23.437Z,11.96
2023-04-07T01:24:56.692Z,11.52
2023-04-07T01:29:58.153Z,11.23
2023-04-07T01:34:59.631Z,10.99
2023-04-07T01:40:01.101Z,11.80
2023-04-07T01:45:02.639Z,11.14
2023-04-07T01:50:05.356Z,11.72
2023-04-07T01:55:07.131Z,11.94
2023-04-07T02:00:08.954Z,11.64
2023-04-07T02:05:16.851Z,11.56
2023-04-07T02:10:19.362Z,11.87
2023-04-07T02:15:20.965Z,11.63
2023-04-07T02:20:22.478Z,11.56
2023-04-07T02:25:31.275Z,11.38
2023-04-07T02:30:32.781Z,11.23
2023-04-07T02:35:34.246Z,11.50
2023-04-07T02:40:36.628Z,10.93
2023-04-07T02:45:38.165Z,11.79
2023-04-07T02:50:41.719Z,11.95
2023-04-07T02:55:43.181Z,11.61
2023-04-07T03:00:44.643Z,11.51
2023-04-07T03:05:46.126Z,11.69
2023-04-07T03:10:47.642Z,11.54
2023-04-07T03:15:49.136Z,11.37
2023-04-07T03:20:52.853Z,11.36
2023-04-07T03:25:54.357Z,11.43
2023-04-07T03:30:55.886Z,11.48
2023-04-07T03:35:57.441Z,11.46
2023-04-07T03:40:58.993Z,11.54
2023-04-07T03:46:00.637Z,11.38
2023-04-07T03:51:02.522Z,11.51
2023-04-07T03:56:04.180Z,11.67
2023-04-07T04:01:07.045Z,11.60
2023-04-07T04:06:08.516Z,11.39
2023-04-07T04:11:10.073Z,11.64
2023-04-07T04:16:13.119Z,11.35
2023-04-07T04:21:16.534Z,11.20
2023-04-07T04:26:18.010Z,11.16
2023-04-07T04:31:19.585Z,11.47
2023-04-07T04:36:21.221Z,11.29
2023-04-07T04:41:22.771Z,11.24
2023-04-07T04:46:24.648Z,11.12
2023-04-07T04:51:26.228Z,10.84
2023-04-07T04:56:27.701Z,11.28
2023-04-07T05:01:30.459Z,11.24
2023-04-07T05:06:33.319Z,10.85
2023-04-07T05:11:34.804Z,10.80
2023-04-07T05:16:36.749Z,10.99
2023-04-07T05:21:38.313Z,10.96
2023-04-07T05:26:39.806Z,10.89
2023-04-07T05:31:41.478Z,11.09
2023-04-07T05:36:43.004Z,10.86
2023-04-07T05:41:44.815Z,10.95
2023-04-07T05:46:46.300Z,10.76
2023-04-07T05:51:49.229Z,10.95
2023-04-07T05:56:51.321Z,11.09
2023-04-07T06:01:52.937Z,11.01
2023-04-07T06:06:55.353Z,10.91
2023-04-07T06:11:56.942Z,10.75
2023-04-07T06:16:58.440Z,10.89
2023-04-07T06:21:59.977Z,10.82
2023-04-07T06:27:02.630Z,10.88
2023-04-07T06:32:04.123Z,11.02
2023-04-07T06:37:06.773Z,10.88
2023-04-07T06:42:08.336Z,10.88
2023-04-07T06:47:09.800Z,10.76
2023-04-07T06:52:11.267Z,11.10
2023-04-07T06:57:12.821Z,11.22
2023-04-07T07:02:14.436Z,10.73
2023-04-07T07:07:16.460Z,10.85
2023-04-07T07:12:18.115Z,10.92
2023-04-07T07:17:19.647Z,10.69
2023-04-07T07:22:21.199Z,11.36
2023-04-07T07:27:22.650Z,11.61
2023-04-07T07:32:24.175Z,11.50
2023-04-07T07:37:25.655Z,11.35
2023-04-07T07:42:27.129Z,11.51
2023-04-07T07:47:28.738Z,11.44
2023-04-07T07:52:30.486Z,11.71
2023-04-07T07:57:32.012Z,11.52
2023-04-07T08:02:34.033Z,11.94
2023-04-07T08:07:35.708Z,12.19
2023-04-07T08:12:37.233Z,12.30
2023-04-07T08:17:38.743Z,12.11
2023-04-07T08:22:40.354Z,12.19
2023-04-07T08:27:41.848Z,12.55
2023-04-07T08:32:44.207Z,12.67
2023-04-07T08:37:45.717Z,12.77
2023-04-07T08:42:48.369Z,12.75
2023-04-07T08:47:49.990Z,12.81
2023-04-07T08:52:54.289Z,12.56
2023-04-07T08:57:56.203Z,12.92
2023-04-07T09:02:57.736Z,12.98
2023-04-07T09:07:59.301Z,13.31
2023-04-07T09:13:01.082Z,13.33
2023-04-07T09:18:02.591Z,13.52
2023-04-07T09:23:04.093Z,13.61
2023-04-07T09:28:05.741Z,13.50
2023-04-07T09:33:07.245Z,13.83
2023-04-07T09:38:09.377Z,13.77
2023-04-07T09:43:15.932Z,13.67
2023-04-07T09:48:20.717Z,13.81
2023-04-07T09:53:27.551Z,14.03
2023-04-07T09:58:29.102Z,14.08
2023-04-07T10:03:30.980Z,13.92
2023-04-07T10:08:33.774Z,13.93
2023-04-07T10:13:37.327Z,14.18
2023-04-07T10:18:38.785Z,14.43
2023-04-07T10:24:04.237Z,14.10
2023-04-07T10:29:11.053Z,14.34
2023-04-07T10:34:12.876Z,14.73
2023-04-07T10:39:14.171Z,14.70
2023-04-07T10:44:43.165Z,14.75
2023-04-07T10:50:20.397Z,15.26
2023-04-07T10:55:31.732Z,15.39
2023-04-07T11:00:33.230Z,15.12
2023-04-07T11:05:38.633Z,15.53
2023-04-07T11:10:40.414Z,15.88
2023-04-07T11:15:41.908Z,16.13
2023-04-07T11:20:51.517Z,15.89
2023-04-07T11:25:59.880Z,16.11
2023-04-07T11:31:01.435Z,15.11
2023-04-07T11:36:03.094Z,15.66
2023-04-07T11:41:14.716Z,15.92
2023-04-07T11:46:17.147Z,15.61
2023-04-07T11:51:20.260Z,16.06
2023-04-07T11:56:22.183Z,16.21
2023-04-07T12:01:27.059Z,16.04
2023-04-07T12:06:35.107Z,16.66
2023-04-07T12:11:37.210Z,16.76
2023-04-07T12:16:39.297Z,17.14
2023-04-07T12:21:40.945Z,17.12
2023-04-07T12:26:42.403Z,17.31
2023-04-07T12:31:43.954Z,17.84
2023-04-07T12:36:45.611Z,18.13
2023-04-07T12:41:48.538Z,18.05
2023-04-07T12:46:50.004Z,18.21
2023-04-07T12:51:52.628Z,18.04
2023-04-07T12:56:54.522Z,17.70
2023-04-07T13:01:56.343Z,18.04
2023-04-07T13:06:57.934Z,17.33
2023-04-07T13:11:59.413Z,17.54
2023-04-07T13:17:00.984Z,17.90
2023-04-07T13:22:05.913Z,17.70
2023-04-07T13:27:07.792Z,18.10
2023-04-07T13:32:09.758Z,18.15
2023-04-07T13:37:11.344Z,18.17
2023-04-07T13:42:16.708Z,17.64
2023-04-07T13:47:21.578Z,17.47
2023-04-07T13:52:23.442Z,17.57
2023-04-07T13:57:24.915Z,17.07
2023-04-07T14:02:27.952Z,17.12
2023-04-07T14:07:29.618Z,16.98
2023-04-07T14:12:31.412Z,16.87
2023-04-07T14:17:32.913Z,16.96
2023-04-07T14:22:34.645Z,15.56
2023-04-07T14:27:37.019Z,15.22
2023-04-07T14:32:38.731Z,15.59
2023-04-07T14:37:40.317Z,14.47
2023-04-07T14:42:41.880Z,14.03
2023-04-07T14:47:43.415Z,14.13
2023-04-07T14:52:45.277Z,14.43
2023-04-07T14:57:46.753Z,13.98
2023-04-07T15:02:48.575Z,14.50
2023-04-07T15:07:50.749Z,13.58
2023-04-07T15:12:52.216Z,13.74
2023-04-07T15:17:53.717Z,13.48
2023-04-07T15:22:55.726Z,13.58
2023-04-07T15:27:57.212Z,14.22
2023-04-07T15:33:04.812Z,13.28
2023-04-07T15:38:06.349Z,13.95
2023-04-07T15:43:10.484Z,13.73
2023-04-07T15:48:12.146Z,14.32
2023-04-07T15:53:13.661Z,13.93
2023-04-07T15:58:15.310Z,14.00
2023-04-07T16:03:17.259Z,13.38
2023-04-07T16:08:19.101Z,13.68
2023-04-07T16:13:20.651Z,13.38
2023-04-07T16:18:22.122Z,13.51
2023-04-07T16:23:23.609Z,12.32
2023-04-07T16:28:25.071Z,13.37
2023-04-07T16:33:28.044Z,12.63
2023-04-07T16:38:29.576Z,13.69
2023-04-07T16:43:31.059Z,13.57
2023-04-07T16:48:32.537Z,14.08
2023-04-07T16:53:34.025Z,13.18
2023-04-07T16:58:35.513Z,13.06
2023-04-07T17:03:37.542Z,13.33
2023-04-07T17:08:39.536Z,12.50
2023-04-07T17:13:41.092Z,13.07
2023-04-07T17:18:42.606Z,12.72
2023-04-07T17:23:44.068Z,12.16
2023-04-07T17:28:46.214Z,12.74
2023-04-07T17:33:48.435Z,12.63
2023-04-07T17:38:50.231Z,12.82
2023-04-07T17:43:52.515Z,12.81
2023-04-07T17:48:54.998Z,13.04
2023-04-07T17:53:56.701Z,12.35
2023-04-07T17:58:58.169Z,12.18
2023-04-07T18:04:00.240Z,12.41
2023-04-07T18:09:02.055Z,11.52
2023-04-07T18:14:03.542Z,11.39
2023-04-07T18:19:05.091Z,11.50
2023-04-07T18:24:06.586Z,12.33
2023-04-07T18:29:10.079Z,11.97
2023-04-07T18:34:11.788Z,11.99
2023-04-07T18:39:13.874Z,12.21
2023-04-07T18:44:15.333Z,12.27
2023-04-07T18:49:17.087Z,12.17
2023-04-07T18:54:18.573Z,12.22
2023-04-07T18:59:20.266Z,11.99
2023-04-07T19:04:24.575Z,12.01
2023-04-07T19:09:26.080Z,11.84
2023-04-07T19:14:27.581Z,12.08
2023-04-07T19:19:29.056Z,11.68
2023-04-07T19:24:30.618Z,12.10
2023-04-07T19:29:32.265Z,11.75
2023-04-07T19:34:33.848Z,11.98
2023-04-07T19:39:35.308Z,10.47
2023-04-07T19:44:37.543Z,11.18
2023-04-07T19:49:39.068Z,11.50
2023-04-07T19:54:40.568Z,11.14
2023-04-07T19:59:42.690Z,11.12
2023-04-07T20:04:44.225Z,11.10
2023-04-07T20:09:45.809Z,11.28
2023-04-07T20:14:47.329Z,11.69
2023-04-07T20:19:48.852Z,10.99
2023-04-07T20:24:50.315Z,11.07
2023-04-07T20:29:52.191Z,11.16
2023-04-07T20:34:53.915Z,11.68
2023-04-07T20:39:55.619Z,11.21
2023-04-07T20:45:03.351Z,10.95
2023-04-07T20:50:05.607Z,11.45
2023-04-07T20:55:07.485Z,11.08
2023-04-07T21:00:10.383Z,11.34
2023-04-07T21:05:11.968Z,11.03
2023-04-07T21:10:14.424Z,11.12
2023-04-07T21:15:16.031Z,11.21
2023-04-07T21:20:17.559Z,11.52
2023-04-07T21:25:19.095Z,11.32
2023-04-07T21:30:21.563Z,11.07
2023-04-07T21:35:26.520Z,11.10
2023-04-07T21:40:28.031Z,11.46
2023-04-07T21:45:29.681Z,11.54
2023-04-07T21:50:31.317Z,11.73
2023-04-07T21:55:32.805Z,11.48
2023-04-07T22:00:34.305Z,11.66
2023-04-07T22:05:36.032Z,11.62
2023-04-07T22:10:37.544Z,11.89
2023-04-07T22:15:39.040Z,11.59
2023-04-07T22:20:40.529Z,11.70
2023-04-07T22:25:42.012Z,11.65
2023-04-07T22:30:43.482Z,11.29
2023-04-07T22:35:45.026Z,11.38
2023-04-07T22:40:46.594Z,11.67
2023-04-07T22:45:48.049Z,11.61
2023-04-07T22:50:49.529Z,11.47
2023-04-07T22:55:51.233Z,11.58
2023-04-07T23:00:52.732Z,11.61
2023-04-07T23:05:54.425Z,11.70
2023-04-07T23:10:55.940Z,11.75
2023-04-07T23:15:58.044Z,11.60
2023-04-07T23:20:59.526Z,11.70
2023-04-07T23:26:01.124Z,11.79
2023-04-07T23:31:02.743Z,11.95
2023-04-07T23:36:04.822Z,11.71
2023-04-07T23:41:07.008Z,11.38
2023-04-07T23:46:08.527Z,11.23
2023-04-07T23:51:10.036Z,11.22
2023-04-07T23:56:11.524Z,11.57
